Wetterdaten: Woche 12.08.13 - 18.08.13 (KW33)
Datum Zeit Temp. A. Feuchte A. Luftdruck Regen Wind Richtung Taupunkt Windchill Windben
12.08.2013 00:00 20,3 C 61 % 1016,6 hPa 0,0 l/m 1,0 km/h N 12,5 C 20,3 C 7,2 km/h
12.08.2013 01:00 19,5 C 64 % 1016,9 hPa 0,0 l/m 0,9 km/h N 12,4 C 19,5 C 5,2 km/h
12.08.2013 02:00 19,5 C 62 % 1016,9 hPa 0,0 l/m 1,9 km/h N 12,0 C 19,5 C 8,1 km/h
12.08.2013 03:00 18,6 C 66 % 1017,3 hPa 0,0 l/m 0,2 km/h N 12,0 C 18,6 C 3,2 km/h
12.08.2013 04:00 17,3 C 71 % 1017,5 hPa 0,0 l/m 0,2 km/h N 12,0 C 17,3 C 3,6 km/h
12.08.2013 05:00 16,7 C 75 % 1017,6 hPa 0,0 l/m 0,0 km/h N 12,1 C 16,7 C 0,8 km/h
12.08.2013 06:00 16,8 C 76 % 1017,7 hPa 0,0 l/m 0,0 km/h N 12,5 C 16,8 C 2,4 km/h
12.08.2013 07:00 17,8 C 74 % 1017,8 hPa 0,0 l/m 0,8 km/h N 13,0 C 17,8 C 5,2 km/h
12.08.2013 08:00 19,9 C 68 % 1018,0 hPa 0,0 l/m 1,4 km/h N 13,7 C 19,9 C 6,4 km/h
12.08.2013 09:00 21,9 C 62 % 1017,9 hPa 0,0 l/m 1,4 km/h N 14,3 C 21,9 C 7,2 km/h
12.08.2013 10:00 24,5 C 54 % 1017,6 hPa 0,0 l/m 1,2 km/h N 14,6 C 24,5 C 8,0 km/h
12.08.2013 11:00 25,4 C 53 % 1017,3 hPa 0,0 l/m 1,9 km/h N 14,9 C 25,4 C 8,0 km/h
12.08.2013 12:00 26,7 C 50 % 1016,5 hPa 0,0 l/m 1,9 km/h N 15,4 C 26,7 C 8,4 km/h
12.08.2013 13:00 26,8 C 49 % 1015,8 hPa 0,0 l/m 1,8 km/h N 15,1 C 26,8 C 9,3 km/h
12.08.2013 14:00 28,4 C 47 % 1014,8 hPa 0,0 l/m 2,5 km/h N 15,8 C 28,4 C 13,7 km/h
12.08.2013 15:00 28,0 C 46 % 1014,1 hPa 0,0 l/m 3,1 km/h N 15,1 C 28,0 C 14,5 km/h
12.08.2013 16:00 27,8 C 49 % 1013,3 hPa 0,0 l/m 2,2 km/h N 16,0 C 27,8 C 10,9 km/h
12.08.2013 17:00 27,6 C 47 % 1012,6 hPa 0,0 l/m 2,0 km/h N 15,2 C 27,6 C 14,9 km/h
12.08.2013 18:00 27,8 C 45 % 1011,7 hPa 0,0 l/m 2,9 km/h N 14,8 C 27,8 C 12,9 km/h
12.08.2013 19:00 28,2 C 43 % 1011,5 hPa 0,0 l/m 3,8 km/h N 14,4 C 28,1 C 13,3 km/h
12.08.2013 20:00 26,4 C 47 % 1011,5 hPa 0,0 l/m 0,4 km/h N 14,1 C 26,4 C 5,2 km/h
12.08.2013 21:00 23,7 C 61 % 1012,4 hPa 0,0 l/m 1,5 km/h N 15,6 C 23,7 C 6,0 km/h
12.08.2013 22:00 21,4 C 69 % 1013,5 hPa 0,0 l/m 4,3 km/h N 15,5 C 21,2 C 14,9 km/h
12.08.2013 23:00 20,7 C 74 % 1014,1 hPa 0,8 l/m 0,6 km/h N 15,9 C 20,7 C 4,0 km/h
13.08.2013 00:00 19,4 C 82 % 1013,8 hPa 1,0 l/m 0,7 km/h N 16,1 C 19,4 C 5,6 km/h
13.08.2013 01:00 18,8 C 81 % 1013,1 hPa 0,0 l/m 0,3 km/h N 15,4 C 18,8 C 6,0 km/h
13.08.2013 02:00 18,0 C 81 % 1012,7 hPa 0,0 l/m 0,1 km/h N 14,6 C 18,0 C 2,0 km/h
13.08.2013 03:00 17,8 C 80 % 1012,4 hPa 0,0 l/m 0,3 km/h N 14,3 C 17,8 C 5,2 km/h
13.08.2013 04:00 17,7 C 81 % 1012,5 hPa 0,0 l/m 0,6 km/h N 14,3 C 17,7 C 6,4 km/h
13.08.2013 05:00 17,8 C 82 % 1012,3 hPa 0,0 l/m 0,2 km/h N 14,7 C 17,8 C 4,0 km/h
13.08.2013 06:00 17,7 C 82 % 1013,1 hPa 0,0 l/m 0,3 km/h N 14,6 C 17,7 C 2,8 km/h
13.08.2013 07:00 18,1 C 82 % 1013,5 hPa 0,0 l/m 0,5 km/h N 15,1 C 18,1 C 4,8 km/h
13.08.2013 08:00 18,2 C 82 % 1014,1 hPa 0,0 l/m 0,5 km/h N 15,1 C 18,2 C 4,4 km/h
13.08.2013 09:00 19,0 C 82 % 1014,9 hPa 0,0 l/m 0,4 km/h N 15,9 C 19,0 C 4,8 km/h
13.08.2013 10:00 20,3 C 79 % 1014,8 hPa 0,0 l/m 1,5 km/h N 16,4 C 20,3 C 6,4 km/h
13.08.2013 11:00 22,0 C 67 % 1015,2 hPa 0,0 l/m 4,7 km/h N 15,6 C 22,0 C 16,9 km/h
13.08.2013 12:00 22,5 C 66 % 1015,3 hPa 0,0 l/m 4,1 km/h N 15,7 C 22,5 C 13,7 km/h
13.08.2013 13:00 22,5 C 68 % 1015,6 hPa 0,0 l/m 5,5 km/h N 16,3 C 22,2 C 16,9 km/h
13.08.2013 14:00 22,5 C 65 % 1015,6 hPa 0,0 l/m 12,1 km/h N 15,6 C 20,9 C 32,2 km/h
13.08.2013 15:00 20,5 C 68 % 1015,8 hPa 0,0 l/m 12,3 km/h N 14,2 C 18,5 C 34,2 km/h
13.08.2013 16:00 21,3 C 64 % 1016,2 hPa 0,0 l/m 3,0 km/h N 14,3 C 21,3 C 13,3 km/h
13.08.2013 17:00 22,4 C 59 % 1016,1 hPa 0,0 l/m 3,7 km/h N 14,0 C 22,4 C 14,5 km/h
13.08.2013 18:00 21,8 C 64 % 1016,3 hPa 0,0 l/m 1,3 km/h N 14,7 C 21,8 C 9,3 km/h
13.08.2013 19:00 21,2 C 64 % 1016,3 hPa 0,0 l/m 2,5 km/h N 14,0 C 21,2 C 12,5 km/h
13.08.2013 20:00 20,8 C 62 % 1016,5 hPa 0,0 l/m 2,2 km/h N 13,3 C 20,8 C 10,9 km/h
13.08.2013 21:00 20,9 C 59 % 1017,2 hPa 0,0 l/m 3,8 km/h N 12,5 C 20,9 C 14,9 km/h
13.08.2013 22:00 20,6 C 59 % 1017,6 hPa 0,0 l/m 4,1 km/h N 12,2 C 20,6 C 14,5 km/h
13.08.2013 23:00 20,0 C 61 % 1018,0 hPa 0,0 l/m 4,8 km/h N 12,1 C 19,8 C 14,5 km/h
14.08.2013 00:00 19,0 C 62 % 1017,9 hPa 0,0 l/m 1,7 km/h N 11,5 C 19,0 C 7,6 km/h
14.08.2013 01:00 18,0 C 64 % 1017,8 hPa 0,0 l/m 0,4 km/h N 11,0 C 18,0 C 4,0 km/h
14.08.2013 02:00 16,9 C 68 % 1018,1 hPa 0,0 l/m 0,0 km/h N 11,0 C 16,9 C 0,8 km/h
14.08.2013 03:00 16,7 C 73 % 1018,2 hPa 0,0 l/m 0,1 km/h N 11,9 C 16,7 C 1,6 km/h
14.08.2013 04:00 17,1 C 67 % 1018,3 hPa 0,0 l/m 0,6 km/h N 10,8 C 17,1 C 4,8 km/h
14.08.2013 05:00 17,4 C 67 % 1018,8 hPa 0,0 l/m 0,0 km/h N 11,3 C 17,4 C 0,4 km/h
14.08.2013 06:00 17,1 C 69 % 1019,3 hPa 0,0 l/m 0,8 km/h N 11,2 C 17,1 C 6,4 km/h
14.08.2013 07:00 17,5 C 68 % 1019,7 hPa 0,0 l/m 0,2 km/h N 11,6 C 17,5 C 3,6 km/h
14.08.2013 08:00 17,9 C 67 % 1020,1 hPa 0,0 l/m 1,6 km/h N 11,6 C 17,9 C 8,0 km/h
14.08.2013 09:00 18,7 C 63 % 1020,2 hPa 0,0 l/m 4,5 km/h N 11,5 C 18,7 C 16,1 km/h
14.08.2013 10:00 18,7 C 63 % 1020,5 hPa 0,0 l/m 3,2 km/h N 11,4 C 18,7 C 10,9 km/h
14.08.2013 11:00 19,6 C 61 % 1020,7 hPa 0,0 l/m 2,4 km/h N 11,9 C 19,6 C 9,7 km/h
14.08.2013 12:00 21,5 C 53 % 1020,3 hPa 0,0 l/m 2,8 km/h N 11,4 C 21,5 C 11,3 km/h
14.08.2013 13:00 22,4 C 49 % 1020,0 hPa 0,0 l/m 3,5 km/h N 11,0 C 22,4 C 11,7 km/h
14.08.2013 14:00 21,7 C 50 % 1020,0 hPa 0,0 l/m 3,3 km/h N 10,6 C 21,7 C 12,1 km/h
14.08.2013 15:00 22,1 C 49 % 1019,9 hPa 0,0 l/m 3,3 km/h N 10,7 C 22,1 C 11,7 km/h
14.08.2013 16:00 21,9 C 51 % 1019,8 hPa 0,0 l/m 3,7 km/h N 11,1 C 21,9 C 10,5 km/h
14.08.2013 17:00 22,1 C 48 % 1019,7 hPa 0,0 l/m 3,5 km/h N 10,5 C 22,1 C 11,7 km/h
14.08.2013 18:00 21,8 C 47 % 1019,8 hPa 0,0 l/m 1,2 km/h N 9,9 C 21,8 C 7,6 km/h
14.08.2013 19:00 21,0 C 50 % 1020,0 hPa 0,0 l/m 0,4 km/h N 10,1 C 21,0 C 4,4 km/h
14.08.2013 20:00 20,2 C 53 % 1020,5 hPa 0,0 l/m 0,4 km/h N 10,4 C 20,2 C 5,6 km/h
14.08.2013 21:00 18,9 C 58 % 1020,9 hPa 0,0 l/m 0,2 km/h N 10,5 C 18,9 C 3,6 km/h
14.08.2013 22:00 17,5 C 62 % 1021,4 hPa 0,0 l/m 0,2 km/h N 10,2 C 17,5 C 4,0 km/h
14.08.2013 23:00 16,8 C 63 % 1021,9 hPa 0,0 l/m 0,3 km/h N 9,8 C 16,8 C 3,6 km/h
15.08.2013 00:00 15,6 C 68 % 1022,2 hPa 0,0 l/m 0,0 km/h N 9,6 C 15,6 C 0,4 km/h
15.08.2013 01:00 14,1 C 72 % 1022,4 hPa 0,0 l/m 0,0 km/h N 9,1 C 14,1 C 0,8 km/h
15.08.2013 02:00 12,8 C 75 % 1022,4 hPa 0,0 l/m 0,0 km/h N 8,5 C 12,8 C 0,4 km/h
15.08.2013 03:00 11,7 C 77 % 1022,6 hPa 0,0 l/m 0,0 km/h N 7,8 C 11,7 C 0,0 km/h
15.08.2013 04:00 11,2 C 79 % 1022,8 hPa 0,0 l/m 0,1 km/h N 7,6 C 11,2 C 2,4 km/h
15.08.2013 05:00 11,4 C 78 % 1022,8 hPa 0,0 l/m 0,1 km/h N 7,7 C 11,4 C 2,8 km/h
15.08.2013 06:00 12,1 C 76 % 1023,3 hPa 0,0 l/m 1,1 km/h N 7,9 C 12,1 C 6,0 km/h
15.08.2013 07:00 13,1 C 74 % 1023,7 hPa 0,0 l/m 0,2 km/h N 8,4 C 13,1 C 2,4 km/h
15.08.2013 08:00 16,3 C 65 % 1023,9 hPa 0,0 l/m 0,1 km/h N 9,7 C 16,3 C 2,0 km/h
15.08.2013 09:00 20,1 C 53 % 1023,8 hPa 0,0 l/m 0,9 km/h N 10,3 C 20,1 C 6,4 km/h
15.08.2013 10:00 22,0 C 46 % 1024,0 hPa 0,0 l/m 1,2 km/h N 9,6 C 22,0 C 6,8 km/h
15.08.2013 11:00 23,0 C 40 % 1023,9 hPa 0,0 l/m 2,2 km/h N 8,7 C 23,0 C 9,3 km/h
15.08.2013 12:00 23,3 C 39 % 1023,3 hPa 0,0 l/m 2,1 km/h N 8,3 C 23,3 C 8,5 km/h
15.08.2013 13:00 23,3 C 39 % 1022,8 hPa 0,0 l/m 2,4 km/h N 8,5 C 23,3 C 10,4 km/h
15.08.2013 14:00 24,2 C 37 % 1022,3 hPa 0,0 l/m 2,8 km/h N 8,6 C 24,2 C 10,1 km/h
15.08.2013 15:00 23,4 C 39 % 1022,0 hPa 0,0 l/m 2,6 km/h N 8,4 C 23,4 C 10,9 km/h
15.08.2013 16:00 23,3 C 39 % 1021,7 hPa 0,0 l/m 2,9 km/h N 8,6 C 23,3 C 10,5 km/h
15.08.2013 17:00 23,1 C 40 % 1021,4 hPa 0,0 l/m 1,3 km/h N 8,6 C 23,1 C 6,0 km/h
15.08.2013 18:00 22,4 C 41 % 1021,3 hPa 0,0 l/m 0,7 km/h N 8,3 C 22,4 C 6,8 km/h
15.08.2013 19:00 22,0 C 41 % 1021,5 hPa 0,0 l/m 0,2 km/h N 8,1 C 22,0 C 3,6 km/h
15.08.2013 20:00 19,7 C 46 % 1021,7 hPa 0,0 l/m 0,0 km/h N 7,7 C 19,7 C 0,4 km/h
15.08.2013 21:00 16,6 C 58 % 1022,1 hPa 0,0 l/m 0,0 km/h N 8,4 C 16,6 C 0,8 km/h
15.08.2013 22:00 14,8 C 64 % 1022,3 hPa 0,0 l/m 0,0 km/h N 8,0 C 14,8 C 0,0 km/h
15.08.2013 23:00 13,6 C 67 % 1022,5 hPa 0,0 l/m 0,0 km/h N 7,6 C 13,6 C 0,4 km/h
16.08.2013 00:00 13,3 C 68 % 1022,4 hPa 0,0 l/m 0,1 km/h N 7,4 C 13,3 C 2,4 km/h
16.08.2013 01:00 13,5 C 67 % 1022,1 hPa 0,0 l/m 0,1 km/h N 7,5 C 13,5 C 2,0 km/h
16.08.2013 02:00 12,7 C 70 % 1021,8 hPa 0,0 l/m 0,2 km/h N 7,4 C 12,7 C 2,8 km/h
16.08.2013 03:00 12,0 C 72 % 1021,9 hPa 0,0 l/m 0,0 km/h N 7,2 C 12,0 C 0,8 km/h
16.08.2013 04:00 11,1 C 76 % 1021,7 hPa 0,0 l/m 0,1 km/h N 7,0 C 11,1 C 2,4 km/h
16.08.2013 05:00 10,8 C 77 % 1021,9 hPa 0,0 l/m 0,0 km/h N 6,8 C 10,8 C 1,2 km/h
16.08.2013 06:00 10,4 C 79 % 1022,3 hPa 0,0 l/m 0,0 km/h N 6,8 C 10,4 C 0,4 km/h
16.08.2013 07:00 11,0 C 80 % 1022,4 hPa 0,0 l/m 0,0 km/h N 7,7 C 11,0 C 0,0 km/h
16.08.2013 08:00 14,9 C 70 % 1022,5 hPa 0,0 l/m 0,1 km/h N 9,4 C 14,9 C 2,0 km/h
16.08.2013 09:00 19,0 C 57 % 1022,3 hPa 0,0 l/m 0,4 km/h N 10,2 C 19,0 C 4,8 km/h
16.08.2013 10:00 22,5 C 46 % 1021,9 hPa 0,0 l/m 0,6 km/h N 10,2 C 22,5 C 6,0 km/h
16.08.2013 11:00 24,1 C 40 % 1021,5 hPa 0,0 l/m 2,8 km/h N 9,6 C 24,1 C 10,5 km/h
16.08.2013 12:00 25,4 C 39 % 1020,8 hPa 0,0 l/m 2,8 km/h N 10,2 C 25,4 C 12,1 km/h
16.08.2013 13:00 26,3 C 36 % 1020,1 hPa 0,0 l/m 3,2 km/h N 10,1 C 26,3 C 15,3 km/h
16.08.2013 14:00 27,0 C 35 % 1019,4 hPa 0,0 l/m 2,7 km/h N 10,1 C 27,0 C 11,7 km/h
16.08.2013 15:00 26,0 C 37 % 1018,9 hPa 0,0 l/m 2,3 km/h N 10,2 C 26,0 C 11,3 km/h
16.08.2013 16:00 25,7 C 39 % 1018,5 hPa 0,0 l/m 2,6 km/h N 10,8 C 25,7 C 13,7 km/h
16.08.2013 17:00 25,5 C 40 % 1018,0 hPa 0,0 l/m 1,7 km/h N 10,8 C 25,5 C 10,5 km/h
16.08.2013 18:00 25,2 C 40 % 1017,7 hPa 0,0 l/m 1,4 km/h N 10,7 C 25,2 C 8,4 km/h
16.08.2013 19:00 24,5 C 42 % 1017,7 hPa 0,0 l/m 0,5 km/h N 10,6 C 24,5 C 5,2 km/h
16.08.2013 20:00 22,4 C 47 % 1017,8 hPa 0,0 l/m 0,0 km/h N 10,3 C 22,4 C 0,0 km/h
16.08.2013 21:00 19,1 C 58 % 1018,2 hPa 0,0 l/m 0,0 km/h N 10,5 C 19,1 C 1,2 km/h
16.08.2013 22:00 17,3 C 65 % 1018,1 hPa 0,0 l/m 0,0 km/h N 10,5 C 17,3 C 0,4 km/h
16.08.2013 23:00 15,8 C 69 % 1018,0 hPa 0,0 l/m 0,0 km/h N 10,1 C 15,8 C 0,0 km/h
17.08.2013 00:00 14,6 C 74 % 1017,8 hPa 0,0 l/m 0,0 km/h N 10,0 C 14,6 C 0,0 km/h
17.08.2013 01:00 13,6 C 78 % 1017,6 hPa 0,0 l/m 0,0 km/h N 9,9 C 13,6 C 0,0 km/h
17.08.2013 02:00 12,9 C 81 % 1017,3 hPa 0,0 l/m 0,0 km/h N 9,7 C 12,9 C 0,0 km/h
17.08.2013 03:00 12,1 C 82 % 1017,1 hPa 0,0 l/m 0,0 km/h N 9,2 C 12,1 C 0,0 km/h
17.08.2013 04:00 11,5 C 83 % 1016,9 hPa 0,0 l/m 0,0 km/h N 8,8 C 11,5 C 0,0 km/h
17.08.2013 05:00 11,1 C 83 % 1016,9 hPa 0,0 l/m 0,0 km/h N 8,3 C 11,1 C 0,0 km/h
17.08.2013 06:00 10,9 C 82 % 1017,2 hPa 0,0 l/m 0,0 km/h N 7,9 C 10,9 C 0,0 km/h
17.08.2013 07:00 12,5 C 80 % 1017,3 hPa 0,0 l/m 0,3 km/h N 9,1 C 12,5 C 3,2 km/h
17.08.2013 08:00 16,3 C 77 % 1017,4 hPa 0,0 l/m 0,2 km/h N 12,2 C 16,3 C 3,2 km/h
17.08.2013 09:00 21,1 C 59 % 1017,4 hPa 0,0 l/m 0,4 km/h N 12,8 C 21,1 C 4,4 km/h
17.08.2013 10:00 24,3 C 51 % 1017,1 hPa 0,0 l/m 0,9 km/h N 13,3 C 24,3 C 5,2 km/h
17.08.2013 11:00 25,7 C 48 % 1016,9 hPa 0,0 l/m 1,0 km/h N 13,7 C 25,7 C 6,8 km/h
17.08.2013 12:00 28,2 C 43 % 1016,5 hPa 0,0 l/m 1,1 km/h N 14,3 C 28,2 C 6,8 km/h
17.08.2013 13:00 29,1 C 41 % 1015,9 hPa 0,0 l/m 1,7 km/h N 14,3 C 29,1 C 7,6 km/h
17.08.2013 14:00 30,0 C 38 % 1015,4 hPa 0,0 l/m 1,7 km/h N 14,1 C 30,0 C 8,9 km/h
17.08.2013 15:00 29,1 C 38 % 1014,8 hPa 0,0 l/m 1,6 km/h N 13,3 C 29,1 C 6,8 km/h
17.08.2013 16:00 29,6 C 36 % 1014,5 hPa 0,0 l/m 3,7 km/h N 12,9 C 29,6 C 15,7 km/h
17.08.2013 17:00 29,4 C 32 % 1014,5 hPa 0,0 l/m 2,5 km/h N 10,9 C 29,4 C 11,3 km/h
17.08.2013 18:00 28,9 C 34 % 1014,6 hPa 0,0 l/m 0,6 km/h N 11,4 C 28,9 C 4,4 km/h
17.08.2013 19:00 27,8 C 41 % 1014,7 hPa 0,0 l/m 0,1 km/h N 13,4 C 27,8 C 2,4 km/h
17.08.2013 20:00 25,1 C 49 % 1014,9 hPa 0,0 l/m 0,0 km/h N 13,6 C 25,1 C 0,0 km/h
17.08.2013 21:00 21,6 C 60 % 1015,4 hPa 0,0 l/m 0,0 km/h N 13,4 C 21,6 C 0,0 km/h
17.08.2013 22:00 19,4 C 66 % 1015,5 hPa 0,0 l/m 0,1 km/h N 12,8 C 19,4 C 2,0 km/h
17.08.2013 23:00 19,0 C 69 % 1015,4 hPa 0,0 l/m 0,0 km/h N 13,1 C 19,0 C 1,2 km/h
18.08.2013 00:00 18,1 C 71 % 1015,5 hPa 0,0 l/m 0,0 km/h N 12,6 C 18,1 C 1,6 km/h
18.08.2013 01:00 17,7 C 70 % 1015,3 hPa 0,0 l/m 0,0 km/h N 12,2 C 17,7 C 0,4 km/h
18.08.2013 02:00 17,2 C 72 % 1014,9 hPa 0,0 l/m 0,0 km/h N 12,0 C 17,2 C 0,4 km/h
18.08.2013 03:00 16,4 C 74 % 1014,9 hPa 0,0 l/m 0,0 km/h N 11,8 C 16,4 C 0,0 km/h
18.08.2013 04:00 15,6 C 78 % 1015,1 hPa 0,0 l/m 0,0 km/h N 11,8 C 15,6 C 0,0 km/h
18.08.2013 05:00 14,9 C 81 % 1015,3 hPa 0,0 l/m 0,0 km/h N 11,6 C 14,9 C 0,0 km/h
18.08.2013 06:00 14,5 C 82 % 1015,7 hPa 0,0 l/m 0,0 km/h N 11,4 C 14,5 C 0,0 km/h
18.08.2013 07:00 15,2 C 82 % 1016,1 hPa 0,0 l/m 0,0 km/h N 12,0 C 15,2 C 0,0 km/h
18.08.2013 08:00 19,2 C 75 % 1016,3 hPa 0,0 l/m 0,1 km/h N 14,7 C 19,2 C 2,0 km/h
18.08.2013 09:00 23,4 C 61 % 1016,3 hPa 0,0 l/m 0,4 km/h N 15,3 C 23,4 C 4,4 km/h
18.08.2013 10:00 25,7 C 55 % 1016,0 hPa 0,0 l/m 0,6 km/h N 15,8 C 25,7 C 4,4 km/h
18.08.2013 11:00 28,3 C 48 % 1015,6 hPa 0,0 l/m 1,1 km/h N 16,3 C 28,3 C 6,4 km/h
18.08.2013 12:00 30,3 C 42 % 1015,1 hPa 0,0 l/m 2,2 km/h N 16,0 C 30,3 C 12,1 km/h
18.08.2013 13:00 31,9 C 41 % 1014,5 hPa 0,0 l/m 1,9 km/h N 17,1 C 31,9 C 9,7 km/h
18.08.2013 14:00 33,0 C 38 % 1013,7 hPa 0,0 l/m 2,9 km/h N 16,8 C 33,0 C 12,5 km/h
18.08.2013 15:00 32,8 C 34 % 1013,1 hPa 0,0 l/m 4,5 km/h N 14,7 C 32,8 C 17,3 km/h
18.08.2013 16:00 32,4 C 34 % 1012,7 hPa 0,0 l/m 5,4 km/h N 14,2 C 32,4 C 20,5 km/h
18.08.2013 17:00 32,0 C 34 % 1012,3 hPa 0,0 l/m 7,8 km/h N 13,9 C 32,0 C 21,7 km/h
18.08.2013 18:00 31,4 C 33 % 1012,2 hPa 0,0 l/m 8,8 km/h N 12,9 C 31,2 C 21,3 km/h
18.08.2013 19:00 30,4 C 34 % 1012,3 hPa 0,0 l/m 5,2 km/h N 12,8 C 30,3 C 18,1 km/h
18.08.2013 20:00 27,7 C 41 % 1012,5 hPa 0,0 l/m 0,0 km/h N 13,0 C 27,7 C 1,2 km/h
18.08.2013 21:00 23,9 C 49 % 1012,9 hPa 0,0 l/m 0,0 km/h N 12,5 C 23,9 C 0,8 km/h
18.08.2013 22:00 22,4 C 56 % 1013,1 hPa 0,0 l/m 0,0 km/h N 13,2 C 22,4 C 0,0 km/h
18.08.2013 23:00 21,7 C 60 % 1013,1 hPa 0,0 l/m 0,0 km/h N 13,5 C 21,7 C 0,0 km/h
Min-Datum _ 16.08.13 17.08.13 12.08.13 - 12.08.13 - 16.08.13 16.08.13 12.08.13
_ Min-Zeit 06:30 17:00 18:45 - 01:15 - 06:15 06:30 01:15
Minimum _ 10,3 C 31 % 1011,4 hPa - 0,0 km/h - 6,7 C 10,3 C 0,0 km/h
Max-Datum _ 18.08.13 13.08.13 15.08.13 13.08.13 13.08.13 - 18.08.13 18.08.13 13.08.13
_ Max-Zeit 14:45 07:30 08:15 00:00 15:00 - 14:15 14:45 14:30
Maximum _ 33,4 C 83 % 1024,0 hPa 1,0 l/m 15,5 km/h
N
- 17,8 C 33,4 C 38,6 km/h
N
Durchschnitt _ 20,6 C 60 % 1017,7 hPa #1,8 l/m 1,5 km/h N 11,8 C 20,6 C 6,6 km/h